EDFM

Mannheim City Airport

Mannheim, Germany
METAR EDFM 181620Z VRB02KT 9999 FEW011 OVC019 02/02 Q1026
Observed Flight Rules
Dec-18 @ 16:20 UTC (22 minutes ago) Marginal Visual Flight Rules
Wind Visibility Clouds
Variable at 2 knots 10,000+ meters
  • Few at 1,100' AGL
  • Overcast at 1,900' AGL
Temperatures Readings
Current 2°C / 36°F
Dewpoint 2°C / 36°F
Humidity 100%
Altimeter 30.3" Hg
Pressure 1026 hPa
Elevation 100
METAR EDFM 181620Z VRB02KT 9999 FEW011 OVC019 02/02 Q1026
Observed Flight Rules
Dec-18 @ 16:20 UTC
(22 minutes ago)
MVFR
Wind Visibility
Variable at 2 knots 10,000+ meters
Clouds
  • Few at 1,100' AGL
  • Overcast at 1,900' AGL
Temperature Dewpoint
2°C / 36°F 2°C / 36°F
Humidity Altimeter Pressure
100% 30.3" Hg 1026 hPa